createdAt,value
2018-07-30T00:00:30.407Z,28.1
2018-07-30T00:01:30.691Z,28.14
2018-07-30T00:02:30.205Z,28.15
2018-07-30T00:03:30.500Z,28.15
2018-07-30T00:04:30.784Z,28.17
2018-07-30T00:05:30.662Z,28.12
2018-07-30T00:06:30.573Z,28.11
2018-07-30T00:07:30.608Z,28.1
2018-07-30T00:08:30.630Z,28.05
2018-07-30T00:09:30.932Z,28.05
2018-07-30T00:10:30.945Z,28.1
2018-07-30T00:11:30.975Z,28.01
2018-07-30T00:12:30.744Z,28.01
2018-07-30T00:13:30.511Z,27.93
2018-07-30T00:14:31.060Z,28.01
2018-07-30T00:15:30.826Z,28.02
2018-07-30T00:16:31.121Z,27.93
2018-07-30T00:17:31.147Z,28
2018-07-30T00:18:30.920Z,28.07
2018-07-30T00:19:30.679Z,28.07
2018-07-30T00:20:31.261Z,28.04
2018-07-30T00:21:31.543Z,28.04
2018-07-30T00:22:31.287Z,27.98
2018-07-30T00:23:31.052Z,28.02
2018-07-30T00:24:30.818Z,27.98
2018-07-30T00:25:31.107Z,27.95
2018-07-30T00:26:31.401Z,27.96
2018-07-30T00:27:31.173Z,27.9
2018-07-30T00:28:31.205Z,27.85
2018-07-30T00:29:31.225Z,27.83
2018-07-30T00:30:31.508Z,27.85
2018-07-30T00:31:31.401Z,27.95
2018-07-30T00:32:31.560Z,27.87
2018-07-30T00:33:31.592Z,27.87
2018-07-30T00:34:31.365Z,27.85
2018-07-30T00:35:31.387Z,27.82
2018-07-30T00:36:31.675Z,27.87
2018-07-30T00:37:31.700Z,27.93
2018-07-30T00:38:31.475Z,27.78
2018-07-30T00:39:31.495Z,27.78
2018-07-30T00:40:31.787Z,27.8
2018-07-30T00:41:34.861Z,27.82
2018-07-30T00:42:31.841Z,27.77
2018-07-30T00:43:31.356Z,27.8
2018-07-30T00:44:31.902Z,27.74
2018-07-30T00:45:31.668Z,27.83
2018-07-30T00:46:31.432Z,27.71
2018-07-30T00:47:31.721Z,27.67
2018-07-30T00:48:31.489Z,27.7
2018-07-30T00:49:32.039Z,27.67
2018-07-30T00:50:32.067Z,27.7
2018-07-30T00:51:31.838Z,27.67
2018-07-30T00:52:32.117Z,27.64
2018-07-30T00:53:31.885Z,27.63
2018-07-30T00:54:32.175Z,27.68
2018-07-30T00:55:32.204Z,27.55
2018-07-30T00:56:32.236Z,27.65
2018-07-30T00:57:31.997Z,27.63
2018-07-30T00:58:32.026Z,27.6
2018-07-30T00:59:32.051Z,27.64
2018-07-30T01:00:32.083Z,27.59
2018-07-30T01:01:32.425Z,27.6
2018-07-30T01:02:32.139Z,27.58
2018-07-30T01:03:32.433Z,27.54
2018-07-30T01:04:32.456Z,27.54
2018-07-30T01:05:32.217Z,27.45
2018-07-30T01:06:32.505Z,27.52
2018-07-30T01:07:32.577Z,27.49
2018-07-30T01:08:32.573Z,27.52
2018-07-30T01:09:32.593Z,27.48
2018-07-30T01:10:32.361Z,27.51
2018-07-30T01:11:32.645Z,27.47
2018-07-30T01:12:32.416Z,27.54
2018-07-30T01:13:32.440Z,27.44
2018-07-30T01:14:32.985Z,27.49
2018-07-30T01:15:32.496Z,27.47
2018-07-30T01:16:32.791Z,27.44
2018-07-30T01:17:32.835Z,27.49
2018-07-30T01:18:32.576Z,27.44
2018-07-30T01:19:32.608Z,27.44
2018-07-30T01:20:32.897Z,27.39
2018-07-30T01:21:32.952Z,27.42
2018-07-30T01:22:32.947Z,27.3
2018-07-30T01:23:32.722Z,27.39
2018-07-30T01:24:32.741Z,27.36
2018-07-30T01:25:33.031Z,27.45
2018-07-30T01:26:33.058Z,27.29
2018-07-30T01:27:33.096Z,27.4
2018-07-30T01:28:33.117Z,27.32
2018-07-30T01:29:33.147Z,27.29
2018-07-30T01:30:32.915Z,27.3
2018-07-30T01:31:33.200Z,27.29
2018-07-30T01:32:33.223Z,27.29
2018-07-30T01:33:32.990Z,27.29
2018-07-30T01:34:33.026Z,27.26
2018-07-30T01:35:33.307Z,27.2
2018-07-30T01:36:33.334Z,27.27
2018-07-30T01:37:33.359Z,27.18
2018-07-30T01:38:32.876Z,27.22
2018-07-30T01:39:33.444Z,27.21
2018-07-30T01:40:33.188Z,27.17
2018-07-30T01:41:33.209Z,27.22
2018-07-30T01:42:33.254Z,27.17
2018-07-30T01:43:33.525Z,27.17
2018-07-30T01:44:33.552Z,27.14
2018-07-30T01:45:33.581Z,27.08
2018-07-30T01:46:33.398Z,27.05
2018-07-30T01:47:33.132Z,27.1
2018-07-30T01:48:33.659Z,27.03
2018-07-30T01:49:33.430Z,27.02
2018-07-30T01:50:33.718Z,27.05
2018-07-30T01:51:33.483Z,26.99
2018-07-30T01:52:33.250Z,27.07
2018-07-30T01:53:33.807Z,27.05
2018-07-30T01:54:33.567Z,27.1
2018-07-30T01:55:33.793Z,27.02
2018-07-30T01:56:33.620Z,27.02
2018-07-30T01:57:33.652Z,27
2018-07-30T01:58:33.943Z,26.93
2018-07-30T01:59:33.445Z,26.95
2018-07-30T02:00:33.990Z,26.92
2018-07-30T02:01:33.759Z,26.9
2018-07-30T02:02:34.052Z,26.92
2018-07-30T02:03:34.077Z,26.92
2018-07-30T02:04:33.839Z,26.9
2018-07-30T02:05:34.125Z,26.95
2018-07-30T02:06:34.155Z,26.9
2018-07-30T02:07:34.185Z,26.88
2018-07-30T02:08:34.221Z,26.88
2018-07-30T02:09:34.241Z,26.85
2018-07-30T02:10:34.264Z,26.78
2018-07-30T02:11:34.030Z,26.85
2018-07-30T02:12:34.322Z,26.84
2018-07-30T02:13:34.342Z,26.81
2018-07-30T02:14:34.378Z,26.77
2018-07-30T02:15:34.398Z,26.81
2018-07-30T02:16:34.192Z,26.81
2018-07-30T02:17:34.458Z,26.85
2018-07-30T02:18:34.480Z,26.81
2018-07-30T02:19:34.516Z,26.8
2018-07-30T02:20:34.276Z,26.7
2018-07-30T02:21:35.016Z,26.74
2018-07-30T02:22:34.587Z,26.74
2018-07-30T02:23:34.359Z,26.73
2018-07-30T02:24:34.378Z,26.73
2018-07-30T02:25:34.670Z,26.66
2018-07-30T02:26:34.693Z,26.65
2018-07-30T02:27:34.721Z,26.6
2018-07-30T02:28:34.495Z,26.65
2018-07-30T02:29:34.778Z,26.63
2018-07-30T02:30:34.814Z,26.6
2018-07-30T02:31:34.830Z,26.7
2018-07-30T02:32:34.598Z,26.59
2018-07-30T02:33:34.890Z,26.63
2018-07-30T02:34:34.391Z,26.62
2018-07-30T02:35:34.686Z,26.63
2018-07-30T02:36:34.724Z,26.59
2018-07-30T02:37:34.994Z,26.56
2018-07-30T02:38:34.782Z,26.59
2018-07-30T02:39:34.792Z,26.62
2018-07-30T02:40:35.081Z,26.58
2018-07-30T02:41:35.107Z,26.58
2018-07-30T02:42:34.878Z,26.58
2018-07-30T02:43:34.909Z,26.53
2018-07-30T02:44:34.921Z,26.53
2018-07-30T02:45:34.952Z,26.47
2018-07-30T02:46:35.238Z,26.55
2018-07-30T02:47:35.264Z,26.53
2018-07-30T02:48:35.312Z,26.47
2018-07-30T02:49:35.061Z,26.44
2018-07-30T02:50:34.828Z,26.47
2018-07-30T02:51:35.381Z,26.45
2018-07-30T02:52:35.154Z,26.47
2018-07-30T02:53:35.423Z,26.48
2018-07-30T02:54:35.451Z,26.44
2018-07-30T02:55:35.223Z,26.41
2018-07-30T02:56:35.255Z,26.45
2018-07-30T02:57:35.430Z,26.31
2018-07-30T02:58:35.303Z,26.33
2018-07-30T02:59:35.585Z,26.4
2018-07-30T03:00:35.356Z,26.37
2018-07-30T03:01:35.646Z,26.31
2018-07-30T03:02:35.428Z,26.33
2018-07-30T03:03:35.439Z,26.36
2018-07-30T03:04:35.728Z,26.34
2018-07-30T03:05:35.743Z,26.29
2018-07-30T03:06:35.510Z,26.37
2018-07-30T03:07:35.804Z,26.31
2018-07-30T03:08:35.563Z,26.28
2018-07-30T03:09:35.866Z,26.31
2018-07-30T03:10:35.359Z,26.22
2018-07-30T03:11:35.644Z,26.22
2018-07-30T03:12:35.686Z,26.23
2018-07-30T03:13:35.699Z,26.19
2018-07-30T03:14:35.993Z,26.21
2018-07-30T03:15:35.754Z,26.21
2018-07-30T03:16:35.792Z,26.19
2018-07-30T03:17:35.815Z,26.13
2018-07-30T03:18:36.105Z,26.15
2018-07-30T03:19:36.124Z,26.15
2018-07-30T03:20:35.886Z,26.21
2018-07-30T03:21:36.177Z,26.25
2018-07-30T03:22:36.197Z,26.23
2018-07-30T03:23:36.223Z,26.16
2018-07-30T03:24:36.260Z,26.21
2018-07-30T03:25:36.053Z,26.1
2018-07-30T03:26:36.047Z,26.07
2018-07-30T03:27:36.081Z,26.1
2018-07-30T03:28:36.106Z,26.15
2018-07-30T03:29:36.390Z,26.09
2018-07-30T03:30:36.419Z,26.18
2018-07-30T03:31:36.499Z,26.02
2018-07-30T03:32:36.464Z,26.05
2018-07-30T03:33:36.236Z,26.02
2018-07-30T03:34:36.517Z,26.1
2018-07-30T03:35:36.338Z,26.05
2018-07-30T03:36:36.312Z,26.06
2018-07-30T03:37:36.338Z,26.05
2018-07-30T03:38:36.367Z,25.91
2018-07-30T03:39:36.392Z,26.02
2018-07-30T03:40:36.684Z,25.95
2018-07-30T03:41:36.707Z,25.98
2018-07-30T03:42:36.483Z,25.96
2018-07-30T03:43:36.755Z,25.96
2018-07-30T03:44:36.840Z,25.93
2018-07-30T03:45:36.602Z,25.96
2018-07-30T03:46:36.845Z,25.93
2018-07-30T03:47:36.604Z,25.96
2018-07-30T03:48:36.894Z,25.95
2018-07-30T03:49:36.921Z,25.95
2018-07-30T03:50:36.682Z,25.87
2018-07-30T03:51:36.973Z,25.83
2018-07-30T03:52:36.737Z,25.85
2018-07-30T03:53:37.025Z,25.8
2018-07-30T03:54:37.175Z,25.84
2018-07-30T03:55:36.812Z,25.78
2018-07-30T03:56:37.098Z,25.81
2018-07-30T03:57:37.125Z,25.81
2018-07-30T03:58:37.162Z,25.78
2018-07-30T03:59:36.924Z,25.8
2018-07-30T04:00:37.208Z,25.8
2018-07-30T04:01:37.232Z,25.75
2018-07-30T04:02:36.998Z,25.78
2018-07-30T04:03:37.288Z,25.72
2018-07-30T04:04:37.308Z,25.72
2018-07-30T04:05:37.077Z,25.77
2018-07-30T04:06:37.199Z,25.73
2018-07-30T04:07:37.412Z,25.68
2018-07-30T04:08:37.414Z,25.66
2018-07-30T04:09:37.186Z,25.66
2018-07-30T04:10:37.212Z,25.66
2018-07-30T04:11:36.976Z,25.66
2018-07-30T04:12:37.300Z,25.66
2018-07-30T04:13:37.031Z,25.73
2018-07-30T04:14:37.318Z,25.69
2018-07-30T04:15:37.607Z,25.7
2018-07-30T04:16:37.367Z,25.63
2018-07-30T04:17:37.654Z,25.63
2018-07-30T04:18:37.677Z,25.68
2018-07-30T04:19:37.717Z,25.59
2018-07-30T04:20:37.742Z,25.66
2018-07-30T04:21:37.759Z,25.62
2018-07-30T04:22:37.528Z,25.6
2018-07-30T04:23:37.293Z,25.51
2018-07-30T04:24:37.837Z,25.6
2018-07-30T04:25:37.879Z,25.54
2018-07-30T04:26:37.934Z,25.58
2018-07-30T04:27:37.929Z,25.63
2018-07-30T04:28:37.959Z,25.58
2018-07-30T04:29:37.707Z,25.47
2018-07-30T04:30:37.787Z,25.55
2018-07-30T04:31:38.026Z,25.54
2018-07-30T04:32:38.047Z,25.58
2018-07-30T04:33:37.813Z,25.55
2018-07-30T04:34:38.101Z,25.59
2018-07-30T04:35:37.874Z,25.54
2018-07-30T04:36:37.900Z,25.59
2018-07-30T04:37:38.180Z,25.44
2018-07-30T04:38:37.943Z,25.54
2018-07-30T04:39:38.236Z,25.44
2018-07-30T04:40:38.004Z,25.44
2018-07-30T04:41:38.021Z,25.51
2018-07-30T04:42:38.307Z,25.53
2018-07-30T04:43:38.102Z,25.46
2018-07-30T04:44:37.840Z,25.44
2018-07-30T04:45:38.389Z,25.43
2018-07-30T04:46:38.155Z,25.46
2018-07-30T04:47:38.446Z,25.48
2018-07-30T04:48:38.466Z,25.46
2018-07-30T04:49:38.508Z,25.48
2018-07-30T04:50:38.517Z,25.41
2018-07-30T04:51:38.544Z,25.46
2018-07-30T04:52:38.308Z,25.47
2018-07-30T04:53:38.597Z,25.48
2018-07-30T04:54:38.627Z,25.44
2018-07-30T04:55:38.649Z,25.47
2018-07-30T04:56:38.415Z,25.47
2018-07-30T04:57:38.709Z,25.32
2018-07-30T04:58:38.466Z,25.38
2018-07-30T04:59:38.491Z,25.33
2018-07-30T05:00:38.779Z,25.35
2018-07-30T05:01:38.802Z,25.41
2018-07-30T05:02:38.583Z,25.4
2018-07-30T05:03:38.598Z,25.31
2018-07-30T05:04:38.886Z,25.36
2018-07-30T05:05:38.924Z,25.31
2018-07-30T05:06:38.936Z,25.35
2018-07-30T05:07:38.961Z,25.29
2018-07-30T05:08:38.753Z,25.29
2018-07-30T05:09:39.010Z,25.28
2018-07-30T05:10:39.038Z,25.32
2018-07-30T05:11:38.820Z,25.31
2018-07-30T05:12:38.830Z,25.29
2018-07-30T05:13:39.122Z,25.38
2018-07-30T05:14:39.144Z,25.36
2018-07-30T05:15:38.907Z,25.38
2018-07-30T05:16:38.936Z,25.32
2018-07-30T05:17:38.960Z,25.33
2018-07-30T05:18:39.248Z,25.35
2018-07-30T05:19:38.811Z,25.35
2018-07-30T05:20:39.298Z,25.35
2018-07-30T05:21:39.085Z,25.35
2018-07-30T05:22:39.353Z,25.32
2018-07-30T05:23:39.118Z,25.26
2018-07-30T05:24:39.145Z,25.33
2018-07-30T05:25:39.339Z,25.26
2018-07-30T05:26:39.454Z,25.29
2018-07-30T05:27:39.481Z,25.35
2018-07-30T05:28:39.253Z,25.28
2018-07-30T05:29:39.536Z,25.38
2018-07-30T05:30:39.557Z,25.26
2018-07-30T05:31:39.678Z,25.4
2018-07-30T05:32:39.356Z,25.31
2018-07-30T05:33:39.121Z,25.31
2018-07-30T05:34:39.425Z,25.29
2018-07-30T05:35:39.686Z,25.36
2018-07-30T05:36:39.719Z,25.38
2018-07-30T05:37:39.740Z,25.35
2018-07-30T05:38:39.765Z,25.35
2018-07-30T05:39:39.533Z,25.26
2018-07-30T05:40:39.555Z,25.35
2018-07-30T05:41:39.841Z,25.35
2018-07-30T05:42:39.919Z,25.38
2018-07-30T05:43:39.896Z,25.35
2018-07-30T05:44:39.660Z,25.29
2018-07-30T05:45:39.957Z,25.35
2018-07-30T05:46:39.974Z,25.32
2018-07-30T05:47:39.752Z,25.33
2018-07-30T05:48:40.032Z,25.4
2018-07-30T05:49:40.055Z,25.35
2018-07-30T05:50:40.085Z,25.32
2018-07-30T05:51:40.115Z,25.32
2018-07-30T05:52:40.129Z,25.35
2018-07-30T05:53:39.636Z,25.33
2018-07-30T05:54:39.935Z,25.41
2018-07-30T05:55:40.206Z,25.33
2018-07-30T05:56:39.970Z,25.43
2018-07-30T05:57:40.257Z,25.46
2018-07-30T05:58:40.284Z,25.32
2018-07-30T05:59:40.699Z,25.44
2018-07-30T06:00:40.338Z,25.46
2018-07-30T06:01:40.107Z,25.51
2018-07-30T06:02:40.130Z,25.46
2018-07-30T06:03:40.424Z,25.5
2018-07-30T06:04:40.456Z,25.44
2018-07-30T06:05:40.380Z,25.41
2018-07-30T06:06:40.493Z,25.43
2018-07-30T06:07:40.515Z,25.48
2018-07-30T06:08:40.543Z,25.46
2018-07-30T06:09:40.684Z,25.54
2018-07-30T06:10:40.592Z,25.44
2018-07-30T06:11:40.356Z,25.55
2018-07-30T06:12:40.647Z,25.6
2018-07-30T06:13:40.710Z,25.6
2018-07-30T06:14:40.698Z,25.55
2018-07-30T06:15:40.461Z,25.54
2018-07-30T06:16:40.748Z,25.62
2018-07-30T06:17:40.773Z,25.58
2018-07-30T06:18:40.537Z,25.58
2018-07-30T06:19:40.829Z,25.48
2018-07-30T06:20:40.854Z,25.55
2018-07-30T06:21:40.892Z,25.65
2018-07-30T06:22:40.643Z,25.65
2018-07-30T06:23:40.666Z,25.58
2018-07-30T06:24:40.700Z,25.65
2018-07-30T06:25:40.982Z,25.68
2018-07-30T06:26:41.023Z,25.72
2018-07-30T06:27:41.033Z,25.69
2018-07-30T06:28:41.059Z,25.72
2018-07-30T06:29:41.084Z,25.68
2018-07-30T06:30:41.115Z,25.73
2018-07-30T06:31:40.882Z,25.73
2018-07-30T06:32:40.901Z,25.73
2018-07-30T06:33:40.925Z,25.78
2018-07-30T06:34:41.213Z,25.75
2018-07-30T06:35:41.250Z,25.78
2018-07-30T06:36:41.276Z,25.84
2018-07-30T06:37:41.288Z,25.85
2018-07-30T06:38:41.323Z,25.8
2018-07-30T06:39:41.347Z,25.81
2018-07-30T06:40:41.105Z,25.85
2018-07-30T06:41:41.394Z,25.8
2018-07-30T06:42:41.490Z,25.87
2018-07-30T06:43:41.465Z,25.88
2018-07-30T06:44:41.214Z,25.95
2018-07-30T06:45:41.500Z,25.93
2018-07-30T06:46:41.521Z,25.96
2018-07-30T06:47:41.298Z,25.99
2018-07-30T06:48:41.314Z,25.98
2018-07-30T06:49:41.340Z,25.96
2018-07-30T06:50:41.634Z,26.13
2018-07-30T06:51:41.395Z,26.1
2018-07-30T06:52:41.417Z,26.05
2018-07-30T06:53:41.447Z,26.1
2018-07-30T06:54:41.730Z,26.15
2018-07-30T06:55:41.501Z,26.22
2018-07-30T06:56:41.525Z,26.21
2018-07-30T06:57:41.566Z,26.23
2018-07-30T06:58:41.834Z,26.13
2018-07-30T06:59:41.868Z,26.21
2018-07-30T07:00:41.887Z,26.22
2018-07-30T07:01:41.914Z,26.22
2018-07-30T07:02:41.949Z,26.33
2018-07-30T07:03:41.711Z,26.29
2018-07-30T07:04:41.734Z,26.29
2018-07-30T07:05:42.021Z,26.34
2018-07-30T07:06:41.786Z,26.41
2018-07-30T07:07:42.083Z,26.43
2018-07-30T07:08:41.835Z,26.44
2018-07-30T07:09:42.131Z,26.53
2018-07-30T07:10:42.154Z,26.55
2018-07-30T07:11:42.175Z,26.52
2018-07-30T07:12:41.942Z,26.6
2018-07-30T07:13:42.232Z,26.6
2018-07-30T07:14:42.253Z,26.66
2018-07-30T07:15:42.279Z,26.65
2018-07-30T07:16:42.317Z,26.66
2018-07-30T07:17:42.329Z,26.75
2018-07-30T07:18:42.365Z,26.83
2018-07-30T07:19:42.132Z,26.85
2018-07-30T07:20:42.286Z,26.93
2018-07-30T07:21:42.782Z,26.89
2018-07-30T07:22:42.464Z,27.02
2018-07-30T07:23:41.969Z,26.99
2018-07-30T07:24:42.519Z,27.02
2018-07-30T07:25:42.549Z,27.12
2018-07-30T07:26:42.566Z,27.17
2018-07-30T07:27:42.600Z,27.25
2018-07-30T07:28:42.621Z,27.22
2018-07-30T07:29:42.389Z,27.3
2018-07-30T07:30:42.418Z,27.36
2018-07-30T07:31:42.700Z,27.37
2018-07-30T07:32:42.728Z,27.49
2018-07-30T07:33:42.503Z,27.51
2018-07-30T07:34:42.523Z,27.51
2018-07-30T07:35:42.813Z,27.58
2018-07-30T07:36:42.840Z,27.6
2018-07-30T07:37:42.871Z,27.73
2018-07-30T07:38:42.897Z,27.68
2018-07-30T07:39:42.393Z,27.82
2018-07-30T07:40:42.421Z,27.86
2018-07-30T07:41:42.703Z,27.86
2018-07-30T07:42:42.887Z,28.01
2018-07-30T07:43:42.498Z,27.95
2018-07-30T07:44:42.782Z,28.1
2018-07-30T07:45:43.071Z,28.08
2018-07-30T07:46:42.579Z,28.12
2018-07-30T07:47:43.135Z,28.22
2018-07-30T07:48:43.021Z,28.26
2018-07-30T07:49:43.185Z,28.33
2018-07-30T07:50:43.702Z,28.38
2018-07-30T07:51:43.064Z,28.47
2018-07-30T07:52:42.737Z,28.49
2018-07-30T07:53:43.025Z,28.54
2018-07-30T07:54:43.081Z,28.67
2018-07-30T07:55:43.355Z,28.78
2018-07-30T07:56:43.360Z,28.79
2018-07-30T07:57:43.131Z,28.82
2018-07-30T07:58:43.570Z,28.84
2018-07-30T07:59:43.440Z,28.91
2018-07-30T08:00:43.214Z,28.94
2018-07-30T08:01:43.235Z,29.05
2018-07-30T08:02:43.520Z,29.07
2018-07-30T08:03:43.295Z,29.16
2018-07-30T08:04:43.579Z,29.24
2018-07-30T08:05:43.607Z,29.36
2018-07-30T08:06:43.650Z,29.29
2018-07-30T08:07:43.673Z,29.36
2018-07-30T08:08:43.684Z,29.47
2018-07-30T08:09:43.951Z,29.51
2018-07-30T08:10:43.483Z,29.54
2018-07-30T08:11:43.775Z,29.53
2018-07-30T08:12:43.800Z,29.59
2018-07-30T08:13:43.562Z,29.65
2018-07-30T08:14:43.329Z,29.69
2018-07-30T08:15:43.883Z,29.78
2018-07-30T08:16:43.909Z,29.9
2018-07-30T08:17:43.934Z,29.97
2018-07-30T08:18:43.697Z,30.03
2018-07-30T08:19:43.995Z,30.13
2018-07-30T08:20:44.013Z,30.16
2018-07-30T08:21:44.066Z,30.21
2018-07-30T08:22:44.076Z,30.27
2018-07-30T08:23:43.835Z,30.37
2018-07-30T08:24:44.126Z,30.5
2018-07-30T08:25:43.888Z,30.51
2018-07-30T08:26:43.921Z,30.55
2018-07-30T08:27:43.945Z,30.57
2018-07-30T08:28:43.972Z,30.78
2018-07-30T08:29:44.325Z,30.87
2018-07-30T08:30:44.296Z,30.87
2018-07-30T08:31:44.056Z,31.03
2018-07-30T08:32:44.340Z,30.99
2018-07-30T08:33:44.419Z,31.1
2018-07-30T08:34:44.407Z,31.22
2018-07-30T08:35:44.170Z,31.42
2018-07-30T08:36:44.195Z,31.44
2018-07-30T08:37:44.223Z,31.58
2018-07-30T08:38:44.249Z,31.62
2018-07-30T08:39:44.281Z,31.73
2018-07-30T08:40:44.301Z,31.81
2018-07-30T08:41:44.592Z,31.99
2018-07-30T08:42:44.374Z,32.11
2018-07-30T08:43:44.653Z,32.16
2018-07-30T08:44:44.164Z,32.31
2018-07-30T08:45:44.704Z,32.51
2018-07-30T08:46:44.731Z,32.48
2018-07-30T08:47:44.771Z,32.56
2018-07-30T08:48:44.915Z,32.67
2018-07-30T08:49:44.828Z,32.73
2018-07-30T08:50:44.861Z,32.83
2018-07-30T08:51:44.876Z,32.8
2018-07-30T08:52:44.384Z,32.93
2018-07-30T08:53:44.693Z,32.97
2018-07-30T08:54:44.702Z,32.95
2018-07-30T08:55:44.729Z,33.02
2018-07-30T08:56:45.023Z,33.12
2018-07-30T08:57:45.050Z,33.14
2018-07-30T08:58:44.817Z,33.23
2018-07-30T08:59:45.110Z,33.3
2018-07-30T09:00:44.877Z,33.3
2018-07-30T09:01:45.168Z,33.32
2018-07-30T09:02:45.188Z,33.36
2018-07-30T09:03:45.278Z,33.39
2018-07-30T09:04:45.251Z,33.39
2018-07-30T09:05:45.280Z,33.55
2018-07-30T09:06:44.785Z,33.53
2018-07-30T09:07:45.079Z,33.61
2018-07-30T09:08:45.366Z,33.69
2018-07-30T09:09:45.395Z,33.77
2018-07-30T09:10:45.429Z,33.81
2018-07-30T09:11:45.457Z,33.94
2018-07-30T09:12:45.863Z,33.94
2018-07-30T09:13:45.249Z,34.03
2018-07-30T09:14:45.279Z,34.01
2018-07-30T09:15:45.049Z,34.18
2018-07-30T09:16:45.613Z,34.23
2018-07-30T09:17:45.374Z,34.27
2018-07-30T09:18:45.399Z,34.39
2018-07-30T09:19:45.688Z,34.47
2018-07-30T09:20:45.465Z,34.55
2018-07-30T09:21:45.745Z,34.52
2018-07-30T09:22:45.782Z,34.71
2018-07-30T09:23:45.284Z,34.66
2018-07-30T09:24:45.836Z,34.8
2018-07-30T09:25:45.870Z,34.78
2018-07-30T09:26:45.909Z,34.86
2018-07-30T09:27:45.932Z,35.02
2018-07-30T09:28:45.953Z,35.04
2018-07-30T09:29:45.725Z,35.08
2018-07-30T09:30:45.496Z,35.08
2018-07-30T09:31:45.526Z,35.19
2018-07-30T09:32:46.433Z,35.27
2018-07-30T09:33:46.120Z,35.3
2018-07-30T09:34:46.149Z,35.36
2018-07-30T09:35:46.172Z,35.46
2018-07-30T09:36:45.940Z,35.52
2018-07-30T09:37:45.969Z,35.58
2018-07-30T09:38:46.124Z,35.58
2018-07-30T09:39:46.381Z,35.71
2018-07-30T09:40:46.320Z,35.76
2018-07-30T09:41:46.088Z,35.82
2018-07-30T09:42:46.433Z,35.88
2018-07-30T09:43:46.430Z,36.01
2018-07-30T09:44:46.569Z,36.02
2018-07-30T09:45:46.479Z,36.09
2018-07-30T09:46:46.508Z,36.2
2018-07-30T09:47:46.284Z,36.16
2018-07-30T09:48:46.300Z,36.3
2018-07-30T09:49:46.594Z,36.36
2018-07-30T09:50:46.862Z,36.39
2018-07-30T09:51:46.396Z,36.45
2018-07-30T09:52:46.428Z,36.55
2018-07-30T09:53:46.715Z,36.59
2018-07-30T09:54:46.752Z,36.7
2018-07-30T09:55:46.258Z,36.67
2018-07-30T09:56:46.290Z,36.89
2018-07-30T09:57:46.841Z,36.93
2018-07-30T09:58:46.616Z,37.03
2018-07-30T09:59:46.647Z,37.08
2018-07-30T10:00:46.680Z,37.11
2018-07-30T10:01:46.702Z,37.18
2018-07-30T10:02:46.997Z,37.37
2018-07-30T10:03:47.034Z,37.39
2018-07-30T10:04:47.061Z,37.49
2018-07-30T10:05:47.091Z,37.56
2018-07-30T10:06:46.861Z,37.63
2018-07-30T10:07:47.156Z,37.56
2018-07-30T10:08:47.190Z,37.67
2018-07-30T10:09:46.957Z,37.77
2018-07-30T10:10:46.991Z,37.78
2018-07-30T10:11:47.488Z,37.83
2018-07-30T10:12:47.072Z,37.92
2018-07-30T10:13:47.088Z,37.94
2018-07-30T10:14:47.378Z,38.02
2018-07-30T10:15:47.152Z,38.08
2018-07-30T10:16:47.179Z,38.12
2018-07-30T10:17:47.708Z,38.14
2018-07-30T10:18:47.277Z,38.23
2018-07-30T10:19:47.539Z,38.28
2018-07-30T10:20:47.569Z,38.36
2018-07-30T10:21:47.607Z,38.42
2018-07-30T10:22:47.638Z,38.48
2018-07-30T10:23:48.062Z,38.5
2018-07-30T10:24:47.180Z,38.58
2018-07-30T10:25:47.476Z,38.67
2018-07-30T10:26:47.765Z,38.68
2018-07-30T10:27:47.798Z,38.87
2018-07-30T10:28:47.830Z,38.86
2018-07-30T10:29:47.615Z,38.99
2018-07-30T10:30:47.439Z,39.07
2018-07-30T10:31:47.936Z,39.07
2018-07-30T10:32:47.700Z,39.17
2018-07-30T10:33:47.472Z,39.25
2018-07-30T10:34:48.029Z,39.25
2018-07-30T10:35:48.083Z,39.3
2018-07-30T10:36:47.574Z,39.34
2018-07-30T10:37:48.127Z,39.49
2018-07-30T10:38:48.164Z,39.44
2018-07-30T10:39:48.223Z,39.43
2018-07-30T10:40:48.231Z,39.48
2018-07-30T10:41:48.259Z,39.43
2018-07-30T10:42:48.286Z,39.46
2018-07-30T10:43:48.325Z,39.44
2018-07-30T10:44:48.354Z,39.52
2018-07-30T10:45:48.387Z,39.43
2018-07-30T10:46:48.428Z,39.44
2018-07-30T10:47:48.198Z,39.43
2018-07-30T10:48:48.495Z,39.46
2018-07-30T10:49:48.536Z,39.44
2018-07-30T10:50:48.560Z,39.46
2018-07-30T10:51:48.726Z,39.49
2018-07-30T10:52:48.621Z,39.43
2018-07-30T10:53:48.528Z,39.49
2018-07-30T10:54:48.693Z,39.41
2018-07-30T10:55:48.725Z,39.41
2018-07-30T10:56:48.758Z,39.44
2018-07-30T10:57:48.791Z,39.41
2018-07-30T10:58:48.822Z,39.4
2018-07-30T10:59:48.597Z,39.44
2018-07-30T11:00:48.900Z,39.41
2018-07-30T11:01:48.925Z,39.43
2018-07-30T11:02:48.960Z,39.37
2018-07-30T11:03:48.739Z,39.43
2018-07-30T11:04:48.764Z,39.34
2018-07-30T11:05:49.068Z,39.33
2018-07-30T11:06:49.098Z,39.29
2018-07-30T11:07:49.314Z,39.33
2018-07-30T11:08:49.160Z,39.31
2018-07-30T11:09:49.071Z,39.33
2018-07-30T11:10:48.973Z,39.29
2018-07-30T11:11:49.002Z,39.3
2018-07-30T11:12:49.033Z,39.34
2018-07-30T11:13:49.332Z,39.4
2018-07-30T11:14:48.928Z,39.36
2018-07-30T11:15:49.395Z,39.44
2018-07-30T11:16:49.175Z,39.55
2018-07-30T11:17:49.469Z,39.63
2018-07-30T11:18:49.304Z,39.63
2018-07-30T11:19:49.278Z,39.75
2018-07-30T11:20:49.306Z,39.65
2018-07-30T11:21:49.755Z,39.78
2018-07-30T11:22:49.646Z,39.89
2018-07-30T11:23:49.406Z,39.87
2018-07-30T11:24:49.757Z,39.87
2018-07-30T11:25:49.743Z,39.97
2018-07-30T11:26:49.249Z,40.02
2018-07-30T11:27:49.884Z,40.02
2018-07-30T11:28:49.852Z,40.06
2018-07-30T11:29:49.879Z,40.05
2018-07-30T11:30:49.646Z,40.11
2018-07-30T11:31:49.946Z,40.15
2018-07-30T11:32:49.979Z,40.28
2018-07-30T11:33:49.491Z,40.28
2018-07-30T11:34:49.788Z,40.38
2018-07-30T11:35:50.083Z,40.61
2018-07-30T11:36:50.109Z,40.63
2018-07-30T11:37:50.146Z,40.66
2018-07-30T11:38:50.191Z,40.68
2018-07-30T11:39:50.216Z,40.8
2018-07-30T11:40:49.996Z,40.81
2018-07-30T11:41:50.028Z,40.85
2018-07-30T11:42:50.448Z,40.91
2018-07-30T11:43:50.216Z,40.99
2018-07-30T11:44:50.389Z,41.07
2018-07-30T11:45:50.424Z,41.16
2018-07-30T11:46:50.463Z,41.28
2018-07-30T11:47:50.230Z,41.33
2018-07-30T11:48:50.374Z,41.4
2018-07-30T11:49:50.633Z,41.44
2018-07-30T11:50:50.644Z,41.53
2018-07-30T11:51:50.371Z,41.59
2018-07-30T11:52:50.405Z,41.66
2018-07-30T11:53:50.441Z,41.82
2018-07-30T11:54:50.739Z,41.85
2018-07-30T11:55:50.780Z,41.88
2018-07-30T11:56:50.814Z,42.01
2018-07-30T11:57:50.846Z,42.1
2018-07-30T11:58:50.620Z,42.14
2018-07-30T11:59:50.917Z,42.14
2018-07-30T12:00:50.949Z,42.24
2018-07-30T12:01:51.362Z,42.31
2018-07-30T12:02:51.037Z,42.32
2018-07-30T12:03:51.055Z,42.36
2018-07-30T12:04:50.831Z,42.45
2018-07-30T12:05:51.126Z,42.47
2018-07-30T12:06:51.169Z,42.62
2018-07-30T12:07:50.939Z,42.74
2018-07-30T12:08:51.417Z,42.78
2018-07-30T12:09:51.266Z,42.91
2018-07-30T12:10:51.305Z,43.06
2018-07-30T12:11:51.336Z,43.1
2018-07-30T12:12:51.114Z,43.19
2018-07-30T12:13:51.161Z,43.23
2018-07-30T12:14:50.925Z,43.28
2018-07-30T12:15:51.223Z,43.31
2018-07-30T12:16:51.255Z,43.42
2018-07-30T12:17:51.551Z,43.45
2018-07-30T12:18:51.363Z,43.49
2018-07-30T12:19:51.105Z,43.61
2018-07-30T12:20:51.446Z,43.65
2018-07-30T12:21:51.952Z,43.79
2018-07-30T12:22:51.735Z,43.8
2018-07-30T12:23:51.846Z,43.83
2018-07-30T12:24:51.287Z,43.87
2018-07-30T12:25:51.841Z,44.01
2018-07-30T12:26:51.904Z,43.98
2018-07-30T12:27:51.925Z,44.05
2018-07-30T12:28:51.687Z,44.15
2018-07-30T12:29:51.463Z,44.1
2018-07-30T12:30:52.048Z,44.17
2018-07-30T12:31:52.057Z,44.24
2018-07-30T12:32:52.093Z,44.36
2018-07-30T12:33:52.142Z,44.37
2018-07-30T12:34:52.166Z,44.4
2018-07-30T12:35:52.203Z,44.4
2018-07-30T12:36:52.256Z,44.4
2018-07-30T12:37:52.281Z,44.52
2018-07-30T12:38:52.359Z,44.59
2018-07-30T12:39:52.088Z,44.54
2018-07-30T12:40:52.127Z,44.56
2018-07-30T12:41:52.548Z,44.67
2018-07-30T12:42:52.462Z,44.76
2018-07-30T12:43:52.520Z,44.78
2018-07-30T12:44:52.703Z,44.86
2018-07-30T12:45:52.572Z,44.97
2018-07-30T12:46:52.348Z,44.96
2018-07-30T12:47:52.641Z,45.05
2018-07-30T12:48:52.701Z,45.09
2018-07-30T12:49:52.735Z,45.08
2018-07-30T12:50:52.767Z,45.1
2018-07-30T12:51:52.794Z,45.13
2018-07-30T12:52:52.840Z,45.16
2018-07-30T12:53:52.872Z,45.2
2018-07-30T12:54:52.964Z,45.25
2018-07-30T12:55:52.680Z,45.29